Accueil
METAR-TAF:

METAR-TAF

Aéroports :

Aéroport de Newport State

Newport, Rhode Island, États-Unis

latitude: 41-31-48N, longitude: 071-17-01W, altitude: 52 m

Observation

Le bulletin a été fait il y a 41 minutes, à 06:53 UTC
Vent 6 kt de sud
Température 14°C
Humidité 94%
Pression 1006 hPa
Visibilité: 16.1 km
Nuages fragmentés à une hauteur de 5500 ft
Ciel couvert à une hauteur de 7000 ft

METAR: KUUU 030653Z AUTO 19006KT 10SM BKN055 OVC070 14/13 A2972 RMK AO2 SLP063 T01440128

Heure: 03:34 (07:34 UTC)


TAF: absent

Observations et prévisions météorologiques de plus de 4000 aéroports (messages METAR et TAF).

Les stations disponibles sont représentées par des disques jaunes et rouges sur la carte.

Passer la souris dessus pour voir le nom de la station.

Cliquer dessus pour voir les observations et prévisions météorologiques.

Pour changer de carte: cliquez sur les boutons verts avec une croix noire pour zoomer, sur le bouton vert avec un tiret pour effectuer un zoom arrière, ou sur les flèches vertes pour les cartes adjacentes.


METAR-TAF: